Time;durP1;ratioP1;P1;durP2;ratioP2;P2;SDS_P1;SDS_P2;PMS_P1;PMS_P2;Temp;Humidity;BMP_temperature;BMP_pressure;BME280_temperature;BME280_humidity;BME280_pressure;Samples;Min_cycle;Max_cycle;Signal;HPM_P1;HPM_P2
2021/10/27 00:02:13;;;;;;;;;7.75;5.75;;;;;;;;5075407;27;45478;-73
2021/10/27 00:04:39;;;;;;;;;6.00;6.00;;;;;;;;5075907;27;45412;-72
2021/10/27 00:07:04;;;;;;;;;6.50;6.50;;;;;;;;5073529;27;45237;-73
2021/10/27 00:09:29;;;;;;;;;6.50;6.50;;;;;;;;5078926;27;45443;-71
2021/10/27 00:11:54;;;;;;;;;6.00;5.00;;;;;;;;5076877;27;45370;-71
2021/10/27 00:14:20;;;;;;;;;8.00;5.00;;;;;;;;5075057;27;45473;-72
2021/10/27 00:16:45;;;;;;;;;7.75;6.75;;;;;;;;5076618;27;45523;-72
2021/10/27 00:19:10;;;;;;;;;7.00;6.25;;;;;;;;5072062;28;47134;-73
2021/10/27 00:21:36;;;;;;;;;5.50;5.50;;;;;;;;5078808;27;45312;-72
2021/10/27 00:24:02;;;;;;;;;8.25;6.25;;;;;;;;5076671;27;45533;-73
2021/10/27 00:26:27;;;;;;;;;9.50;6.50;;;;;;;;5076789;27;45354;-73
2021/10/27 00:28:52;;;;;;;;;7.50;3.50;;;;;;;;5076526;27;45636;-73
2021/10/27 00:31:18;;;;;;;;;5.50;5.50;;;;;;;;5072826;27;45400;-73
2021/10/27 00:33:44;;;;;;;;;5.25;5.25;;;;;;;;5077850;27;45519;-71
2021/10/27 00:36:09;;;;;;;;;9.50;5.50;;;;;;;;5078430;27;46395;-72
2021/10/27 00:38:34;;;;;;;;;4.50;4.50;;;;;;;;5078133;27;45307;-72
2021/10/27 00:41:00;;;;;;;;;5.00;5.00;;;;;;;;5078505;27;45348;-72
2021/10/27 00:43:25;;;;;;;;;4.00;4.00;;;;;;;;5077193;27;45331;-72
2021/10/27 00:45:50;;;;;;;;;4.75;4.75;;;;;;;;5079529;27;45467;-72
2021/10/27 00:48:15;;;;;;;;;7.00;5.00;;;;;;;;5080260;27;45359;-72
2021/10/27 00:50:40;;;;;;;;;1.00;1.00;;;;;;;;5079308;27;45407;-71
2021/10/27 00:53:06;;;;;;;;;7.75;6.00;;;;;;;;5078116;27;45403;-71
2021/10/27 00:55:32;;;;;;;;;3.25;3.25;;;;;;;;5077741;27;45486;-72
2021/10/27 00:57:57;;;;;;;;;6.75;5.50;;;;;;;;5077160;27;46372;-72
2021/10/27 01:00:22;;;;;;;;;5.00;5.00;;;;;;;;5081390;27;45265;-71
2021/10/27 01:02:48;;;;;;;;;7.75;6.25;;;;;;;;5079374;27;45595;-72
2021/10/27 01:05:15;;;;;;;;;5.50;4.00;;;;;;;;5061362;28;45533;-72
2021/10/27 01:07:40;;;;;;;;;9.00;6.00;;;;;;;;5078997;27;46211;-72
2021/10/27 01:10:06;;;;;;;;;7.00;7.00;;;;;;;;5075815;27;45377;-72
2021/10/27 01:12:31;;;;;;;;;7.25;7.00;;;;;;;;5081707;27;45393;-72
2021/10/27 01:17:45;;;;;;;;;6.00;4.25;;;;;;;;5668090;23;46050;-71
2021/10/27 01:20:13;;;;;;;;;5.75;5.75;;;;;;;;4950289;28;45499;-72
2021/10/27 01:22:39;;;;;;;;;8.50;6.50;;;;;;;;4953661;28;45439;-71
2021/10/27 01:25:06;;;;;;;;;5.75;5.75;;;;;;;;4954788;28;45360;-72
2021/10/27 01:27:32;;;;;;;;;6.75;5.00;;;;;;;;4954085;28;46100;-72
2021/10/27 01:29:58;;;;;;;;;4.00;4.00;;;;;;;;4951628;28;45194;-72
2021/10/27 01:32:27;;;;;;;;;6.25;6.25;;;;;;;;4952103;28;45175;-72
2021/10/27 01:34:53;;;;;;;;;6.00;4.75;;;;;;;;4951668;28;45497;-73
2021/10/27 01:37:19;;;;;;;;;7.00;5.25;;;;;;;;4955920;28;45340;-74
2021/10/27 01:39:44;;;;;;;;;5.25;5.25;;;;;;;;4954291;28;45400;-71
2021/10/27 01:42:10;;;;;;;;;7.00;5.75;;;;;;;;4951905;28;45630;-72
2021/10/27 01:44:35;;;;;;;;;4.50;4.50;;;;;;;;4951929;28;45408;-72
2021/10/27 01:47:00;;;;;;;;;8.25;7.00;;;;;;;;4951575;28;46717;-72
2021/10/27 01:49:25;;;;;;;;;6.25;5.00;;;;;;;;4954554;28;45532;-72
2021/10/27 01:51:51;;;;;;;;;5.50;5.50;;;;;;;;4954502;28;45353;-72
2021/10/27 01:54:17;;;;;;;;;4.00;4.00;;;;;;;;4952271;28;45550;-73
2021/10/27 01:56:42;;;;;;;;;4.25;4.00;;;;;;;;4954102;28;46355;-73
2021/10/27 01:59:08;;;;;;;;;5.50;5.50;;;;;;;;4951748;28;45448;-73
2021/10/27 02:01:33;;;;;;;;;4.50;3.50;;;;;;;;4941482;28;45456;-73
2021/10/27 02:03:58;;;;;;;;;4.00;4.00;;;;;;;;4940624;28;45356;-73
2021/10/27 02:06:24;;;;;;;;;5.75;4.75;;;;;;;;4942738;28;45383;-73
2021/10/27 02:08:49;;;;;;;;;5.00;5.00;;;;;;;;4943250;28;45517;-73
2021/10/27 02:11:14;;;;;;;;;7.00;5.50;;;;;;;;4943457;28;45382;-73
2021/10/27 02:13:39;;;;;;;;;6.50;4.75;;;;;;;;4942062;28;45304;-73
2021/10/27 02:16:05;;;;;;;;;6.00;6.00;;;;;;;;4939924;28;45434;-73
2021/10/27 02:18:31;;;;;;;;;6.75;5.00;;;;;;;;4941713;28;45350;-73
2021/10/27 02:20:56;;;;;;;;;6.00;6.00;;;;;;;;4942817;28;45424;-72
2021/10/27 02:23:21;;;;;;;;;4.50;4.25;;;;;;;;4942970;28;45483;-73
2021/10/27 02:25:46;;;;;;;;;3.75;2.75;;;;;;;;4942616;28;46074;-73
2021/10/27 02:28:11;;;;;;;;;5.25;4.50;;;;;;;;4938932;28;45472;-73
2021/10/27 02:30:37;;;;;;;;;4.00;4.00;;;;;;;;4942498;28;45426;-73
2021/10/27 02:33:02;;;;;;;;;5.00;4.75;;;;;;;;4941172;28;45407;-73
2021/10/27 02:35:28;;;;;;;;;5.00;5.00;;;;;;;;4942382;28;47190;-73
2021/10/27 02:37:53;;;;;;;;;6.75;6.75;;;;;;;;4942695;28;45382;-73
2021/10/27 02:40:18;;;;;;;;;7.00;7.00;;;;;;;;4939026;28;45361;-73
2021/10/27 02:42:44;;;;;;;;;6.25;4.75;;;;;;;;4941810;28;45427;-72
2021/10/27 02:45:10;;;;;;;;;4.00;4.00;;;;;;;;4942816;28;45923;-73
2021/10/27 02:47:35;;;;;;;;;4.00;4.00;;;;;;;;4942096;28;45818;-73
2021/10/27 02:50:00;;;;;;;;;4.00;3.00;;;;;;;;4942656;28;45373;-73
2021/10/27 02:52:26;;;;;;;;;6.50;5.00;;;;;;;;4938844;28;45274;-73
2021/10/27 02:54:51;;;;;;;;;3.25;3.25;;;;;;;;4940562;28;47237;-74
2021/10/27 02:57:16;;;;;;;;;6.25;4.00;;;;;;;;4942810;28;45273;-73
2021/10/27 02:59:41;;;;;;;;;4.25;4.25;;;;;;;;4941975;28;45701;-73
2021/10/27 03:02:08;;;;;;;;;5.00;5.00;;;;;;;;4942047;28;45605;-72
2021/10/27 03:04:33;;;;;;;;;8.25;5.00;;;;;;;;4940447;28;46127;-73
2021/10/27 03:06:58;;;;;;;;;9.00;5.75;;;;;;;;4939735;28;45517;-73
2021/10/27 03:09:23;;;;;;;;;5.00;5.00;;;;;;;;4951914;28;45216;-72
2021/10/27 03:11:49;;;;;;;;;6.25;5.75;;;;;;;;4950163;28;45468;-72
2021/10/27 03:14:14;;;;;;;;;8.00;6.00;;;;;;;;4949513;28;45927;-73
2021/10/27 03:16:39;;;;;;;;;6.50;5.75;;;;;;;;4940605;28;45251;-73
2021/10/27 03:19:04;;;;;;;;;10.25;7.25;;;;;;;;4939229;28;45573;-72
2021/10/27 03:21:30;;;;;;;;;7.75;5.75;;;;;;;;4941654;28;45293;-72
2021/10/27 03:23:57;;;;;;;;;3.75;3.75;;;;;;;;4941927;28;45522;-73
2021/10/27 03:26:22;;;;;;;;;5.00;4.00;;;;;;;;4940331;28;45348;-73
2021/10/27 03:28:47;;;;;;;;;5.50;5.00;;;;;;;;4941990;28;45508;-72
2021/10/27 03:31:14;;;;;;;;;4.50;4.50;;;;;;;;4937677;28;45462;-72
2021/10/27 03:33:39;;;;;;;;;6.50;5.00;;;;;;;;4941233;28;46314;-72
2021/10/27 03:36:04;;;;;;;;;7.00;4.25;;;;;;;;4949085;28;45447;-74
2021/10/27 03:38:30;;;;;;;;;5.00;5.00;;;;;;;;4949895;28;45490;-73
2021/10/27 03:40:55;;;;;;;;;5.50;5.00;;;;;;;;4950052;28;45416;-74
2021/10/27 03:43:20;;;;;;;;;8.75;7.00;;;;;;;;4953505;28;45458;-73
2021/10/27 03:45:46;;;;;;;;;5.00;4.25;;;;;;;;4951842;28;45380;-73
2021/10/27 03:48:11;;;;;;;;;7.50;6.50;;;;;;;;4949380;28;45535;-73
2021/10/27 03:50:37;;;;;;;;;7.75;6.50;;;;;;;;4949205;28;45431;-73
2021/10/27 03:53:03;;;;;;;;;7.50;5.50;;;;;;;;4950703;28;45400;-73
2021/10/27 03:55:28;;;;;;;;;8.25;7.25;;;;;;;;4938888;28;45427;-73
2021/10/27 03:57:54;;;;;;;;;8.00;8.00;;;;;;;;4939421;28;45381;-73
2021/10/27 04:00:20;;;;;;;;;8.00;8.00;;;;;;;;4950089;28;45627;-73
2021/10/27 04:02:45;;;;;;;;;8.25;6.25;;;;;;;;4949031;28;45424;-73
2021/10/27 04:05:10;;;;;;;;;7.25;7.25;;;;;;;;4949505;28;45447;-72
2021/10/27 04:07:37;;;;;;;;;7.75;6.00;;;;;;;;4951017;28;45477;-72
2021/10/27 04:10:06;;;;;;;;;8.25;7.75;;;;;;;;4952473;28;45348;-72
2021/10/27 04:12:32;;;;;;;;;12.75;10.75;;;;;;;;4943411;28;46566;-72
2021/10/27 04:14:57;;;;;;;;;13.00;10.25;;;;;;;;4944139;28;45294;-72
2021/10/27 04:17:22;;;;;;;;;6.75;5.75;;;;;;;;4946138;28;45290;-72
2021/10/27 04:19:49;;;;;;;;;11.75;11.25;;;;;;;;4952576;28;45485;-73
2021/10/27 04:22:14;;;;;;;;;10.50;9.00;;;;;;;;4956460;28;47351;-72
2021/10/27 04:24:39;;;;;;;;;10.00;10.00;;;;;;;;4953697;28;45725;-73
2021/10/27 04:27:05;;;;;;;;;12.50;11.00;;;;;;;;4952262;28;45248;-72
2021/10/27 04:29:30;;;;;;;;;11.75;10.75;;;;;;;;4951755;28;45558;-72
2021/10/27 04:31:56;;;;;;;;;13.00;12.25;;;;;;;;4953634;28;46119;-72
2021/10/27 04:34:22;;;;;;;;;17.50;16.50;;;;;;;;4940491;28;45349;-73
2021/10/27 04:36:47;;;;;;;;;14.75;10.25;;;;;;;;4942687;28;45353;-73
2021/10/27 04:39:13;;;;;;;;;13.75;13.75;;;;;;;;4952013;28;45646;-72
2021/10/27 04:41:38;;;;;;;;;12.50;12.00;;;;;;;;4951522;28;46172;-72
2021/10/27 04:44:04;;;;;;;;;18.50;15.50;;;;;;;;4951423;28;45507;-73
2021/10/27 04:46:29;;;;;;;;;16.50;13.75;;;;;;;;4955143;28;45344;-72
2021/10/27 04:48:54;;;;;;;;;14.00;14.00;;;;;;;;4954818;28;45359;-73
2021/10/27 04:51:19;;;;;;;;;11.25;11.25;;;;;;;;4952777;28;45686;-72
2021/10/27 04:53:45;;;;;;;;;17.75;12.50;;;;;;;;4945955;28;45919;-73
2021/10/27 04:56:10;;;;;;;;;14.00;14.00;;;;;;;;4943633;28;45364;-72
2021/10/27 04:58:35;;;;;;;;;20.25;16.75;;;;;;;;4941574;28;45395;-72
2021/10/27 05:01:00;;;;;;;;;16.00;13.00;;;;;;;;4941233;28;46145;-72
2021/10/27 05:03:26;;;;;;;;;12.25;11.25;;;;;;;;4942571;28;45460;-73
2021/10/27 05:05:56;;;;;;;;;11.25;11.25;;;;;;;;4943166;28;45386;-73
2021/10/27 05:08:24;;;;;;;;;10.75;10.75;;;;;;;;4943331;28;45432;-73
2021/10/27 05:10:50;;;;;;;;;13.00;11.50;;;;;;;;4940624;28;46298;-73
2021/10/27 05:13:15;;;;;;;;;15.00;15.00;;;;;;;;4939089;28;45459;-72
2021/10/27 05:15:40;;;;;;;;;14.25;12.25;;;;;;;;4953109;28;45412;-73
2021/10/27 05:18:06;;;;;;;;;15.00;13.25;;;;;;;;4951058;28;45274;-73
2021/10/27 05:20:31;;;;;;;;;16.25;12.25;;;;;;;;4950358;28;45302;-74
2021/10/27 05:22:56;;;;;;;;;18.00;14.50;;;;;;;;4950056;28;45424;-73
2021/10/27 05:25:22;;;;;;;;;12.25;11.50;;;;;;;;4954933;28;45415;-74
2021/10/27 05:27:47;;;;;;;;;11.25;10.00;;;;;;;;4952863;28;45380;-75
2021/10/27 05:30:12;;;;;;;;;9.75;9.75;;;;;;;;4950515;28;47220;-73
2021/10/27 05:32:37;;;;;;;;;13.50;10.50;;;;;;;;4950679;28;45477;-73
2021/10/27 05:35:03;;;;;;;;;13.25;13.25;;;;;;;;4950182;28;45303;-74
2021/10/27 05:37:28;;;;;;;;;11.00;11.00;;;;;;;;4953231;28;45563;-73
2021/10/27 05:39:53;;;;;;;;;19.25;14.50;;;;;;;;4953086;28;46387;-73
2021/10/27 05:42:21;;;;;;;;;17.00;12.50;;;;;;;;4951352;28;45329;-73
2021/10/27 05:44:48;;;;;;;;;17.75;12.75;;;;;;;;4950205;28;45371;-74
2021/10/27 05:47:13;;;;;;;;;14.25;14.25;;;;;;;;4950053;28;45371;-72
2021/10/27 05:49:49;;;;;;;;;16.00;13.00;;;;;;;;4953085;28;46064;-72
2021/10/27 05:57:27;;;;;;;;;14.25;14.25;;;;;;;;4951753;28;45446;-74
2021/10/27 05:59:52;;;;;;;;;12.25;11.50;;;;;;;;4949960;28;45964;-74
2021/10/27 06:02:17;;;;;;;;;17.00;15.75;;;;;;;;4949935;28;45468;-73
2021/10/27 06:04:43;;;;;;;;;11.75;10.00;;;;;;;;4950918;28;47811;-73
2021/10/27 06:07:08;;;;;;;;;17.00;14.00;;;;;;;;4953340;28;45155;-73
2021/10/27 06:09:33;;;;;;;;;16.50;14.50;;;;;;;;4951772;28;46620;-73
2021/10/27 06:12:03;;;;;;;;;13.50;11.75;;;;;;;;4943238;28;45467;-73
2021/10/27 06:14:29;;;;;;;;;19.75;17.50;;;;;;;;4941457;28;45460;-73
2021/10/27 06:16:54;;;;;;;;;20.25;16.50;;;;;;;;4941485;28;45514;-74
2021/10/27 06:19:19;;;;;;;;;13.75;12.50;;;;;;;;4937264;28;46535;-73
2021/10/27 06:21:44;;;;;;;;;17.00;15.00;;;;;;;;4939487;28;45413;-74
2021/10/27 06:24:09;;;;;;;;;16.50;12.00;;;;;;;;4941510;28;45300;-74
2021/10/27 06:26:35;;;;;;;;;16.00;15.00;;;;;;;;4941318;28;45618;-74
2021/10/27 06:29:03;;;;;;;;;16.25;15.00;;;;;;;;4940898;28;46151;-73
2021/10/27 06:31:34;;;;;;;;;17.00;17.00;;;;;;;;4938477;28;45508;-75
2021/10/27 06:34:07;;;;;;;;;19.00;16.75;;;;;;;;4937835;28;45471;-75
2021/10/27 06:47:38;;;;;;;;;19.25;17.25;;;;;;;;4946314;28;45477;-75
2021/10/27 06:50:03;;;;;;;;;24.00;21.25;;;;;;;;4951622;28;46141;-72
2021/10/27 06:52:29;;;;;;;;;18.50;16.75;;;;;;;;4952918;28;45521;-74
2021/10/27 06:54:54;;;;;;;;;20.00;17.75;;;;;;;;4936745;28;45313;-76
2021/10/27 06:57:24;;;;;;;;;23.75;19.00;;;;;;;;4951171;28;45543;-74
2021/10/27 06:59:51;;;;;;;;;18.00;15.75;;;;;;;;4944128;28;46259;-72
2021/10/27 07:14:58;;;;;;;;;19.50;16.50;;;;;;;;4952195;28;45524;-73
2021/10/27 07:16:06;;;;;;;;;22.75;20.25;;;;;;;;4953208;28;45332;-75
2021/10/27 07:18:32;;;;;;;;;23.00;16.50;;;;;;;;4940528;28;45441;-76
2021/10/27 07:20:57;;;;;;;;;19.75;18.00;;;;;;;;4947125;28;46011;-77
2021/10/27 07:23:22;;;;;;;;;24.25;20.50;;;;;;;;4948251;28;45316;-76
2021/10/27 07:25:56;;;;;;;;;21.50;19.25;;;;;;;;4938406;28;45471;-77
2021/10/27 07:28:21;;;;;;;;;23.25;20.50;;;;;;;;4938331;28;45761;-78
2021/10/27 07:30:47;;;;;;;;;22.50;19.50;;;;;;;;4951515;28;46859;-75
2021/10/27 07:33:13;;;;;;;;;19.25;17.75;;;;;;;;4940429;28;45525;-74
2021/10/27 07:35:45;;;;;;;;;22.00;20.50;;;;;;;;4940309;28;45440;-75
2021/10/27 07:40:55;;;;;;;;;20.75;20.00;;;;;;;;4940548;28;45793;-73
2021/10/27 07:43:23;;;;;;;;;27.25;25.25;;;;;;;;4936632;28;45522;-75
2021/10/27 07:45:48;;;;;;;;;25.50;20.25;;;;;;;;4939278;28;45357;-83
2021/10/27 07:48:14;;;;;;;;;26.00;24.25;;;;;;;;4941422;28;45310;-84
2021/10/27 07:50:40;;;;;;;;;21.75;20.00;;;;;;;;4939557;28;46628;-75
2021/10/27 07:53:07;;;;;;;;;31.50;26.50;;;;;;;;4938955;28;45384;-73
2021/10/27 07:55:33;;;;;;;;;25.50;23.75;;;;;;;;4937559;28;45359;-73
2021/10/27 07:57:59;;;;;;;;;24.25;21.00;;;;;;;;4940327;28;45470;-75
2021/10/27 08:00:24;;;;;;;;;30.00;26.00;;;;;;;;4940609;28;46158;-75
2021/10/27 08:02:50;;;;;;;;;28.25;24.25;;;;;;;;4949729;28;45576;-78
2021/10/27 08:05:16;;;;;;;;;24.25;20.00;;;;;;;;4949509;28;45346;-77
2021/10/27 08:07:45;;;;;;;;;22.75;19.50;;;;;;;;4951331;28;45369;-75
2021/10/27 08:10:10;;;;;;;;;24.50;21.00;;;;;;;;4939357;28;47149;-78
2021/10/27 08:12:36;;;;;;;;;27.50;26.00;;;;;;;;4940604;28;45356;-76
2021/10/27 08:15:01;;;;;;;;;32.00;28.00;;;;;;;;4940379;28;45411;-78
2021/10/27 08:17:26;;;;;;;;;30.50;28.50;;;;;;;;4942848;28;45403;-76
2021/10/27 08:19:52;;;;;;;;;26.75;23.25;;;;;;;;4947410;28;47518;-78
2021/10/27 08:22:19;;;;;;;;;21.75;21.25;;;;;;;;4952761;28;45243;-77
2021/10/27 08:24:48;;;;;;;;;24.25;23.25;;;;;;;;4950529;28;45265;-77
2021/10/27 08:27:18;;;;;;;;;23.25;21.00;;;;;;;;4940066;28;45603;-77
2021/10/27 08:29:43;;;;;;;;;20.25;19.50;;;;;;;;4939570;28;47099;-78
2021/10/27 08:32:17;;;;;;;;;27.00;23.75;;;;;;;;4940018;28;45376;-77
2021/10/27 08:34:47;;;;;;;;;28.00;23.25;;;;;;;;4939095;28;45527;-77
2021/10/27 08:37:14;;;;;;;;;19.67;17.67;;;;;;;;4935946;28;45642;-76
2021/10/27 08:39:39;;;;;;;;;19.25;19.25;;;;;;;;4938614;28;46263;-77
2021/10/27 08:42:06;;;;;;;;;20.75;18.75;;;;;;;;4939464;28;45287;-77
2021/10/27 08:44:31;;;;;;;;;21.00;20.50;;;;;;;;4939728;28;45404;-77
2021/10/27 08:46:57;;;;;;;;;23.75;21.25;;;;;;;;4939775;28;45445;-76
2021/10/27 08:49:25;;;;;;;;;22.75;20.25;;;;;;;;4936055;28;46926;-76
2021/10/27 08:51:51;;;;;;;;;28.00;21.75;;;;;;;;4937519;28;45395;-78
2021/10/27 08:54:17;;;;;;;;;19.25;19.25;;;;;;;;4941737;28;45187;-77
2021/10/27 08:56:44;;;;;;;;;23.75;20.00;;;;;;;;4944651;28;45544;-78
2021/10/27 08:59:23;;;;;;;;;16.25;14.25;;;;;;;;4945386;28;46302;-78
2021/10/27 09:02:01;;;;;;;;;14.75;13.50;;;;;;;;4943742;28;45405;-77
2021/10/27 09:07:08;;;;;;;;;21.75;19.75;;;;;;;;4942210;28;45231;-78
2021/10/27 09:10:31;;;;;;;;;16.25;14.50;;;;;;;;4944383;28;45528;-78
2021/10/27 09:15:25;;;;;;;;;23.50;18.75;;;;;;;;4954160;28;45527;-76
2021/10/27 09:35:02;;;;;;;;;25.00;21.75;;;;;;;;4940190;28;45377;-75
2021/10/27 09:37:55;;;;;;;;;39.00;31.75;;;;;;;;4939581;28;45397;-76
2021/10/27 10:04:02;;;;;;;;;29.25;28.25;;;;;;;;4968385;28;45533;-77
2021/10/27 10:05:11;;;;;;;;;31.25;28.75;;;;;;;;4967555;28;45462;-76
2021/10/27 10:07:37;;;;;;;;;33.00;26.00;;;;;;;;4969134;28;45925;-76
2021/10/27 10:10:06;;;;;;;;;37.25;30.75;;;;;;;;4970133;28;45517;-77
2021/10/27 10:12:33;;;;;;;;;30.75;30.75;;;;;;;;4958234;28;45423;-76
2021/10/27 10:14:58;;;;;;;;;29.50;26.50;;;;;;;;4956694;28;46019;-76
2021/10/27 10:17:24;;;;;;;;;40.25;33.50;;;;;;;;4959973;28;45446;-77
2021/10/27 10:19:49;;;;;;;;;39.00;33.75;;;;;;;;4960329;28;45470;-77
2021/10/27 10:22:35;;;;;;;;;47.75;39.00;;;;;;;;4955606;28;45596;-78
2021/10/27 10:25:19;;;;;;;;;35.50;30.25;;;;;;;;4969713;28;46143;-78
2021/10/27 10:27:48;;;;;;;;;35.75;33.00;;;;;;;;4968481;28;45385;-74
2021/10/27 10:30:32;;;;;;;;;27.50;25.75;;;;;;;;4958285;28;45481;-77
2021/10/27 10:33:02;;;;;;;;;31.50;28.00;;;;;;;;4946593;28;45388;-76
2021/10/27 10:35:38;;;;;;;;;34.50;32.75;;;;;;;;4948660;28;46173;-77
2021/10/27 10:38:23;;;;;;;;;27.75;26.00;;;;;;;;4948481;28;45395;-78
2021/10/27 11:38:52;;;;;;;;;8.25;8.00;;;;;;;;4925566;28;45646;-76
2021/10/27 11:41:39;;;;;;;;;14.50;12.50;;;;;;;;4922704;28;45958;-76
2021/10/27 11:43:55;;;;;;;;;10.75;10.50;;;;;;;;4926217;28;45325;-76
2021/10/27 11:46:36;;;;;;;;;14.00;13.00;;;;;;;;4937873;28;45490;-76
2021/10/27 11:49:10;;;;;;;;;15.25;11.75;;;;;;;;4950439;28;45303;-74
2021/10/27 11:51:36;;;;;;;;;12.50;11.75;;;;;;;;4938554;28;47202;-77
2021/10/27 11:54:12;;;;;;;;;11.50;11.50;;;;;;;;4939492;28;45309;-75
2021/10/27 11:56:38;;;;;;;;;13.33;11.67;;;;;;;;4939988;28;45460;-75
2021/10/27 11:59:03;;;;;;;;;9.33;8.33;;;;;;;;4939181;28;45406;-76
2021/10/27 12:01:33;;;;;;;;;10.25;10.25;;;;;;;;4936447;28;46444;-76
2021/10/27 12:03:59;;;;;;;;;16.25;13.75;;;;;;;;4938111;28;45325;-76
2021/10/27 12:14:15;;;;;;;;;8.33;8.33;;;;;;;;4948528;28;45365;-77
2021/10/27 12:19:14;;;;;;;;;9.00;9.00;;;;;;;;4951273;28;45460;-77
2021/10/27 12:21:51;;;;;;;;;8.67;8.00;;;;;;;;4939382;28;46400;-75
2021/10/27 12:24:18;;;;;;;;;7.33;7.00;;;;;;;;4948644;28;45369;-75
2021/10/27 12:26:45;;;;;;;;;14.67;11.67;;;;;;;;4947285;28;45254;-75
2021/10/27 12:29:23;;;;;;;;;9.00;8.33;;;;;;;;4948255;28;45186;-76
2021/10/27 12:32:14;;;;;;;;;11.00;10.67;;;;;;;;4949613;28;46121;-76
2021/10/27 12:34:59;;;;;;;;;6.00;5.00;;;;;;;;4939884;28;45499;-77
2021/10/27 12:40:09;;;;;;;;;4.67;4.67;;;;;;;;4953907;28;45367;-76
2021/10/27 12:42:35;;;;;;;;;5.00;5.00;;;;;;;;4942314;28;46998;-77
2021/10/27 12:45:00;;;;;;;;;6.67;6.67;;;;;;;;4943131;28;45589;-76
2021/10/27 12:47:28;;;;;;;;;9.67;7.33;;;;;;;;4942700;28;45243;-76
2021/10/27 12:50:07;;;;;;;;;4.33;4.33;;;;;;;;4942595;28;45549;-74
2021/10/27 12:52:34;;;;;;;;;8.00;8.00;;;;;;;;4940019;28;45385;-76
2021/10/27 12:55:07;;;;;;;;;6.00;5.67;;;;;;;;4939750;28;45222;-76
2021/10/27 12:58:04;;;;;;;;;6.33;6.33;;;;;;;;4941570;28;45369;-76
2021/10/27 13:00:49;;;;;;;;;6.67;6.00;;;;;;;;4953544;28;45547;-76
2021/10/27 13:05:57;;;;;;;;;7.00;7.00;;;;;;;;4942807;28;45472;-77
2021/10/27 13:11:29;;;;;;;;;8.67;8.67;;;;;;;;4941523;28;45582;-75
2021/10/27 13:14:35;;;;;;;;;8.33;7.00;;;;;;;;4942370;28;45567;-76
2021/10/27 13:17:28;;;;;;;;;7.67;7.00;;;;;;;;4941856;28;45532;-75
2021/10/27 13:30:18;;;;;;;;;11.00;10.33;;;;;;;;4949879;28;45296;-76
2021/10/27 13:32:51;;;;;;;;;7.33;7.33;;;;;;;;4950333;28;45512;-77
2021/10/27 13:35:16;;;;;;;;;9.00;9.00;;;;;;;;4950826;28;46259;-77
2021/10/27 13:37:41;;;;;;;;;9.33;6.00;;;;;;;;4953522;28;45331;-77
2021/10/27 13:40:07;;;;;;;;;6.00;6.00;;;;;;;;4939467;28;45543;-76
2021/10/27 14:06:57;;;;;;;;;2.67;1.33;;;;;;;;4951961;28;45277;-76
2021/10/27 14:09:31;;;;;;;;;5.33;5.33;;;;;;;;4949450;28;45500;-75
2021/10/27 14:12:19;;;;;;;;;8.67;7.67;;;;;;;;4948811;28;45931;-76
2021/10/27 14:15:11;;;;;;;;;8.00;6.67;;;;;;;;4949312;28;45315;-76
2021/10/27 14:20:27;;;;;;;;;10.67;8.00;;;;;;;;4950086;28;45282;-75
2021/10/27 14:23:11;;;;;;;;;11.00;8.33;;;;;;;;4949576;28;45448;-76
2021/10/27 15:20:15;;;;;;;;;10.00;8.33;;;;;;;;4940524;28;45350;-76
2021/10/27 15:23:00;;;;;;;;;10.00;9.00;;;;;;;;4938138;28;46183;-76
2021/10/27 15:30:47;;;;;;;;;4.67;4.67;;;;;;;;4938826;28;45562;-75
2021/10/27 15:51:54;;;;;;;;;6.33;6.33;;;;;;;;4950767;28;45273;-76
2021/10/27 15:54:19;;;;;;;;;5.67;5.67;;;;;;;;4939992;28;46916;-75
2021/10/27 15:56:45;;;;;;;;;5.25;5.00;;;;;;;;4940064;28;45339;-77
2021/10/27 15:59:11;;;;;;;;;5.25;5.25;;;;;;;;4941071;28;45439;-77
2021/10/27 16:01:37;;;;;;;;;7.00;7.00;;;;;;;;4938223;28;45505;-77
2021/10/27 16:04:02;;;;;;;;;8.50;7.50;;;;;;;;4935897;28;46916;-75
2021/10/27 16:06:29;;;;;;;;;6.50;5.75;;;;;;;;4942384;28;45349;-76
2021/10/27 16:08:57;;;;;;;;;8.25;7.00;;;;;;;;4942037;28;45511;-74
2021/10/27 16:11:22;;;;;;;;;7.25;5.75;;;;;;;;4944286;28;45457;-75
2021/10/27 16:13:48;;;;;;;;;6.75;5.25;;;;;;;;4953102;28;46667;-75
2021/10/27 16:16:14;;;;;;;;;6.50;6.50;;;;;;;;4938641;28;45387;-74
2021/10/27 16:18:40;;;;;;;;;8.75;8.00;;;;;;;;4941221;28;45412;-74
2021/10/27 16:21:05;;;;;;;;;5.50;5.25;;;;;;;;4942335;28;47850;-74
2021/10/27 16:23:30;;;;;;;;;4.00;4.00;;;;;;;;4942793;28;45340;-75
2021/10/27 16:25:56;;;;;;;;;3.75;3.75;;;;;;;;4943078;28;45528;-74
2021/10/27 16:28:22;;;;;;;;;6.25;6.25;;;;;;;;4938405;28;45289;-77
2021/10/27 16:30:47;;;;;;;;;7.00;6.00;;;;;;;;4941924;28;45472;-78
2021/10/27 16:33:14;;;;;;;;;6.25;6.25;;;;;;;;4942561;28;45531;-76
2021/10/27 16:35:40;;;;;;;;;4.00;4.00;;;;;;;;4945787;28;45467;-78
2021/10/27 16:38:05;;;;;;;;;7.25;6.00;;;;;;;;4950260;28;45310;-79
2021/10/27 16:40:31;;;;;;;;;9.75;8.75;;;;;;;;4951211;28;45337;-81
2021/10/27 16:42:57;;;;;;;;;10.00;7.50;;;;;;;;4946010;28;46202;-80
2021/10/27 16:45:22;;;;;;;;;14.25;13.00;;;;;;;;4951964;28;45268;-78
2021/10/27 16:47:47;;;;;;;;;12.75;10.00;;;;;;;;4949262;28;45370;-79
2021/10/27 16:50:13;;;;;;;;;10.25;9.25;;;;;;;;4950003;28;45473;-80
2021/10/27 16:52:39;;;;;;;;;8.00;8.00;;;;;;;;4950748;28;46250;-81
2021/10/27 16:55:07;;;;;;;;;6.75;5.75;;;;;;;;4953457;28;45532;-79
2021/10/27 16:57:33;;;;;;;;;7.50;7.50;;;;;;;;4941769;28;45495;-74
2021/10/27 16:59:59;;;;;;;;;7.75;7.75;;;;;;;;4942045;28;45777;-74
2021/10/27 17:02:24;;;;;;;;;10.50;8.50;;;;;;;;4941679;28;46959;-75
2021/10/27 17:04:49;;;;;;;;;8.50;7.25;;;;;;;;4939495;28;45518;-76
2021/10/27 17:07:14;;;;;;;;;10.00;7.25;;;;;;;;4953321;28;45311;-76
2021/10/27 17:09:40;;;;;;;;;8.25;8.00;;;;;;;;4941814;28;45408;-77
2021/10/27 17:12:06;;;;;;;;;12.75;11.50;;;;;;;;4941704;28;46132;-76
2021/10/27 17:14:33;;;;;;;;;11.00;9.25;;;;;;;;4941881;28;45332;-77
2021/10/27 17:16:58;;;;;;;;;11.75;11.00;;;;;;;;4941638;28;45420;-74
2021/10/27 17:19:23;;;;;;;;;12.00;10.75;;;;;;;;4938021;28;45405;-74
2021/10/27 17:21:49;;;;;;;;;11.50;10.00;;;;;;;;4940901;28;46328;-74
2021/10/27 17:24:16;;;;;;;;;12.25;12.25;;;;;;;;4941717;28;45556;-74
2021/10/27 17:26:42;;;;;;;;;11.25;11.25;;;;;;;;4941861;28;45353;-75
2021/10/27 17:29:08;;;;;;;;;13.25;12.50;;;;;;;;4941793;28;45508;-74
2021/10/27 17:31:33;;;;;;;;;14.50;14.50;;;;;;;;4938350;28;45358;-73
2021/10/27 17:33:58;;;;;;;;;17.25;16.00;;;;;;;;4939437;28;45318;-72
2021/10/27 17:36:25;;;;;;;;;17.00;13.50;;;;;;;;4941614;28;45317;-73
2021/10/27 17:38:52;;;;;;;;;27.50;24.25;;;;;;;;4941158;28;45310;-75
2021/10/27 17:41:18;;;;;;;;;13.75;11.25;;;;;;;;4941895;28;46335;-73
2021/10/27 17:43:45;;;;;;;;;33.50;30.00;;;;;;;;4940491;28;45568;-73
2021/10/27 17:46:11;;;;;;;;;12.75;12.75;;;;;;;;4938132;28;45461;-73
2021/10/27 17:48:40;;;;;;;;;16.25;13.75;;;;;;;;4940864;28;45501;-73
2021/10/27 17:51:17;;;;;;;;;16.50;13.50;;;;;;;;4941333;28;47279;-73
2021/10/27 17:59:11;;;;;;;;;12.75;8.00;;;;;;;;4941733;28;45266;-72
2021/10/27 18:01:37;;;;;;;;;13.75;13.00;;;;;;;;4938744;28;46100;-72
2021/10/27 18:04:04;;;;;;;;;13.00;13.00;;;;;;;;4939012;28;45673;-72
2021/10/27 18:06:29;;;;;;;;;13.75;12.75;;;;;;;;4940729;28;45526;-73
2021/10/27 18:08:54;;;;;;;;;17.75;14.50;;;;;;;;4941800;28;45506;-72
2021/10/27 18:11:22;;;;;;;;;14.00;11.75;;;;;;;;4941136;28;47055;-72
2021/10/27 18:13:51;;;;;;;;;15.25;13.00;;;;;;;;4939634;28;45373;-72
2021/10/27 18:16:25;;;;;;;;;20.00;17.00;;;;;;;;4937677;28;45323;-74
2021/10/27 18:42:17;;;;;;;;;25.25;23.75;;;;;;;;4941455;28;48635;-72
2021/10/27 18:44:43;;;;;;;;;18.50;14.00;;;;;;;;4940990;28;45569;-73
2021/10/27 18:47:09;;;;;;;;;14.50;14.00;;;;;;;;4941449;28;45358;-74
2021/10/27 18:49:43;;;;;;;;;17.25;14.75;;;;;;;;5064190;28;45359;-74
2021/10/27 18:54:46;;;;;;;;;16.25;15.75;;;;;;;;5049175;28;45455;-73
2021/10/27 18:57:30;;;;;;;;;15.25;14.25;;;;;;;;5048415;28;45267;-74
2021/10/27 19:00:26;;;;;;;;;17.25;14.50;;;;;;;;5048179;28;46579;-73
2021/10/27 19:10:56;;;;;;;;;23.50;20.25;;;;;;;;5034840;28;45697;-73
2021/10/27 19:14:00;;;;;;;;;8.75;8.75;;;;;;;;5032812;28;45304;-74
2021/10/27 19:16:07;;;;;;;;;15.00;14.00;;;;;;;;5047238;28;45246;-73
2021/10/27 19:18:33;;;;;;;;;18.00;15.00;;;;;;;;5046591;28;45404;-73
2021/10/27 19:20:58;;;;;;;;;15.25;13.00;;;;;;;;5040929;28;46416;-74
2021/10/27 19:23:24;;;;;;;;;17.00;16.00;;;;;;;;5039470;28;45332;-73
2021/10/27 19:28:33;;;;;;;;;17.00;15.50;;;;;;;;5047064;28;45355;-74
2021/10/27 20:17:08;;;;;;;;;16.50;15.75;;;;;;;;4934693;28;45817;-71
2021/10/27 20:54:25;;;;;;;;;16.00;15.50;;;;;;;;5054377;28;45337;-72
2021/10/27 20:56:55;;;;;;;;;24.00;20.50;;;;;;;;5052685;28;45308;-71
2021/10/27 21:12:10;;;;;;;;;22.75;17.75;;;;;;;;5053844;28;45385;-71
2021/10/27 21:12:47;;;;;;;;;17.00;16.00;;;;;;;;5053135;28;45332;-72
2021/10/27 21:15:13;;;;;;;;;13.50;13.50;;;;;;;;5053415;28;45381;-71
2021/10/27 21:17:39;;;;;;;;;19.75;16.00;;;;;;;;5052518;28;45375;-72